A- A+ FrançaisEnglishEspañol中国

le plus proche LFBT Tarbes-Lourdes-PyrénéesLFMP Perpignan-RivesalterLFTH Hyeres-Le-Palyvestre LFBZ Biarritz-Bayonne-Anglet

manche à air

La météo aéronautique pour les pilotes, la préparation du vol avec les METAR (METeorological Aerodrome Report, message d'observation des conditions météorologiques pour l'aviation) et Les TAF (Terminal Aerodrome Forecast : message de prévision à court terme des conditions météorologiques pour l'aviation). Et les autres ressources comme les VAC (Visual Approch Chart) et les NOTAM (Notice To Airman) pour préprer les vols.

Aéroport Kerry (Irlande) / OACI EIKY/ IATA KIR

L'altitude de l'aéroport Kerry est de 34 m=112 ft. Il est situé à proximité de Killarney (Irlande). La météo générale à 5 jours est disponible pour Ciarraí situé à 15.5 km.

METAR de l'aéroport Kerry - EIKY

EIKY 031400Z 18011KT 9999 SCT028 09/05 Q1020

Décodage du METAR de l'aéroport Kerry (IE)

METAR émis par EIKY le mardi 3 décembre 2019 à 14:00 heure TU. Attention ce METAR est obsolète car il a été émis il y a 11 heure et 45 minutes.

La visibilité est de supérieure à 10 km=supérieure à 6.2 sm.

La température est de 9°C=48 °F et le point rosée est de 5°C=41 °F . Ce qui correspond à 76% d'humidité relative.

Le QNH est de 1020 hPa=30.12 inHg

Vent de 11 kt=20 km/h, orienté à 180°.

Nuages : Nuages épars à 2800 ft=850 mètres.

TAF de l'aéroport Kerry - EIKY

EIKY 031100Z 0312/0321 18013KT 9999 SCT025 TEMPO 0314/0318 18015G25KT

EIKY 031100Z 0312/0321 18013KT 9999 nuages épars à 025 temporairement 0314/0318 18015G25KT

Aéroport à proximité de Kerry

Météo générale à 5 jours à Ciarraí (15.5 km)EIRT Aéroport Rathcoole (38 km)EIBN Aéroport Bantry (57 km)EINN Aéroport Shannon (71 km)EICN Aéroport Coonagh (79 km)EICK Aéroport Cork (80 km)EIIR Aéroport Inisheer (98 km)

Vue aérienne de l'aéroport Kerry

NOTAM de l'aéroport Kerry

Les NOTAM sont fournis sans aucune garantie de leur actualité. Le pilote est le seul responsable de la vérification de sa validité avant de l'utiliser opérationnellement pour préparer un vol ou l'utiliser lors de sa navigation.

Pas de NOTAM

Sources des données